sensor_id;sensor_type;location;lat;lon;timestamp;P1;durP1;ratioP1;P2;durP2;ratioP2
36653;SDS011;22650;49.350;20.898;2023-07-09T00:00:15;1999.90;;;999.90;;
36653;SDS011;22650;49.350;20.898;2023-07-09T00:02:53;1999.90;;;999.90;;
36653;SDS011;22650;49.350;20.898;2023-07-09T00:05:26;1999.90;;;999.90;;
36653;SDS011;22650;49.350;20.898;2023-07-09T00:08:00;1999.90;;;999.90;;
36653;SDS011;22650;49.350;20.898;2023-07-09T00:10:34;1999.90;;;999.90;;
36653;SDS011;22650;49.350;20.898;2023-07-09T00:13:07;1999.90;;;999.90;;
36653;SDS011;22650;49.350;20.898;2023-07-09T00:15:41;1999.90;;;999.90;;
36653;SDS011;22650;49.350;20.898;2023-07-09T00:18:16;1999.90;;;999.90;;
36653;SDS011;22650;49.350;20.898;2023-07-09T00:20:50;1999.90;;;999.90;;
36653;SDS011;22650;49.350;20.898;2023-07-09T00:23:24;1999.90;;;999.90;;
36653;SDS011;22650;49.350;20.898;2023-07-09T00:25:59;1999.90;;;999.90;;
36653;SDS011;22650;49.350;20.898;2023-07-09T00:28:35;1999.90;;;999.90;;
36653;SDS011;22650;49.350;20.898;2023-07-09T00:31:09;1999.90;;;999.90;;
36653;SDS011;22650;49.350;20.898;2023-07-09T00:33:48;1999.90;;;999.90;;
36653;SDS011;22650;49.350;20.898;2023-07-09T00:36:26;1999.90;;;999.90;;
36653;SDS011;22650;49.350;20.898;2023-07-09T00:39:01;1999.90;;;999.90;;
36653;SDS011;22650;49.350;20.898;2023-07-09T00:41:36;1999.90;;;999.90;;
36653;SDS011;22650;49.350;20.898;2023-07-09T00:49:56;1999.90;;;999.90;;
36653;SDS011;22650;49.350;20.898;2023-07-09T00:52:37;1999.90;;;999.90;;
36653;SDS011;22650;49.350;20.898;2023-07-09T00:55:18;1999.90;;;999.90;;
36653;SDS011;22650;49.350;20.898;2023-07-09T00:57:55;1999.90;;;999.90;;
36653;SDS011;22650;49.350;20.898;2023-07-09T01:00:34;1999.90;;;999.90;;
36653;SDS011;22650;49.350;20.898;2023-07-09T01:03:20;1999.90;;;999.90;;
36653;SDS011;22650;49.350;20.898;2023-07-09T01:08:39;1999.90;;;999.90;;
36653;SDS011;22650;49.350;20.898;2023-07-09T01:11:15;1999.90;;;999.90;;
36653;SDS011;22650;49.350;20.898;2023-07-09T01:13:54;1999.90;;;999.90;;
36653;SDS011;22650;49.350;20.898;2023-07-09T01:16:31;1999.90;;;999.90;;
36653;SDS011;22650;49.350;20.898;2023-07-09T01:19:09;1999.90;;;999.90;;
36653;SDS011;22650;49.350;20.898;2023-07-09T01:21:47;1999.90;;;999.90;;
36653;SDS011;22650;49.350;20.898;2023-07-09T01:27:23;1999.90;;;999.90;;
36653;SDS011;22650;49.350;20.898;2023-07-09T01:30:02;1999.90;;;999.90;;
36653;SDS011;22650;49.350;20.898;2023-07-09T01:32:38;1999.90;;;999.90;;
36653;SDS011;22650;49.350;20.898;2023-07-09T01:35:13;1999.90;;;999.90;;
36653;SDS011;22650;49.350;20.898;2023-07-09T01:37:50;1999.90;;;999.90;;
36653;SDS011;22650;49.350;20.898;2023-07-09T01:40:24;1999.90;;;999.90;;
36653;SDS011;22650;49.350;20.898;2023-07-09T01:43:03;1999.90;;;999.90;;
36653;SDS011;22650;49.350;20.898;2023-07-09T01:45:38;1999.90;;;999.90;;
36653;SDS011;22650;49.350;20.898;2023-07-09T01:48:12;1999.90;;;999.90;;
36653;SDS011;22650;49.350;20.898;2023-07-09T01:50:47;1999.90;;;999.90;;
36653;SDS011;22650;49.350;20.898;2023-07-09T01:53:24;1999.90;;;999.90;;
36653;SDS011;22650;49.350;20.898;2023-07-09T01:55:59;1999.90;;;999.90;;
36653;SDS011;22650;49.350;20.898;2023-07-09T01:58:33;1999.90;;;999.90;;
36653;SDS011;22650;49.350;20.898;2023-07-09T02:01:07;1999.90;;;999.90;;
36653;SDS011;22650;49.350;20.898;2023-07-09T02:03:42;1999.90;;;999.90;;
36653;SDS011;22650;49.350;20.898;2023-07-09T02:06:16;1999.90;;;999.90;;
36653;SDS011;22650;49.350;20.898;2023-07-09T02:08:53;1999.90;;;999.90;;
36653;SDS011;22650;49.350;20.898;2023-07-09T02:11:26;1999.90;;;999.90;;
36653;SDS011;22650;49.350;20.898;2023-07-09T02:14:00;1999.90;;;999.90;;
36653;SDS011;22650;49.350;20.898;2023-07-09T02:16:34;1999.90;;;999.90;;
36653;SDS011;22650;49.350;20.898;2023-07-09T02:19:07;1999.90;;;999.90;;
36653;SDS011;22650;49.350;20.898;2023-07-09T02:21:41;1999.90;;;999.90;;
36653;SDS011;22650;49.350;20.898;2023-07-09T02:24:16;1999.90;;;999.90;;
36653;SDS011;22650;49.350;20.898;2023-07-09T02:26:49;1999.90;;;999.90;;
36653;SDS011;22650;49.350;20.898;2023-07-09T02:29:24;1999.90;;;999.90;;
36653;SDS011;22650;49.350;20.898;2023-07-09T02:31:59;1999.90;;;999.90;;
36653;SDS011;22650;49.350;20.898;2023-07-09T02:34:34;1999.90;;;999.90;;
36653;SDS011;22650;49.350;20.898;2023-07-09T02:37:08;1999.90;;;999.90;;
36653;SDS011;22650;49.350;20.898;2023-07-09T02:39:43;1999.90;;;999.90;;
36653;SDS011;22650;49.350;20.898;2023-07-09T02:42:18;1999.90;;;999.90;;
36653;SDS011;22650;49.350;20.898;2023-07-09T02:44:54;1999.90;;;999.90;;
36653;SDS011;22650;49.350;20.898;2023-07-09T02:47:30;1999.90;;;999.90;;
36653;SDS011;22650;49.350;20.898;2023-07-09T02:50:05;1999.90;;;999.90;;
36653;SDS011;22650;49.350;20.898;2023-07-09T02:52:39;1999.90;;;999.90;;
36653;SDS011;22650;49.350;20.898;2023-07-09T02:55:15;1999.90;;;999.90;;
36653;SDS011;22650;49.350;20.898;2023-07-09T02:57:49;1999.90;;;999.90;;
36653;SDS011;22650;49.350;20.898;2023-07-09T03:00:22;1999.90;;;999.90;;
36653;SDS011;22650;49.350;20.898;2023-07-09T03:02:56;1999.90;;;999.90;;
36653;SDS011;22650;49.350;20.898;2023-07-09T03:05:30;1999.90;;;999.90;;
36653;SDS011;22650;49.350;20.898;2023-07-09T03:08:03;1999.90;;;999.90;;
36653;SDS011;22650;49.350;20.898;2023-07-09T03:10:38;1999.90;;;999.90;;
36653;SDS011;22650;49.350;20.898;2023-07-09T03:13:12;1999.90;;;999.90;;
36653;SDS011;22650;49.350;20.898;2023-07-09T03:15:53;1999.90;;;999.90;;
36653;SDS011;22650;49.350;20.898;2023-07-09T03:18:28;1999.90;;;999.90;;
36653;SDS011;22650;49.350;20.898;2023-07-09T03:21:01;1999.90;;;999.90;;
36653;SDS011;22650;49.350;20.898;2023-07-09T03:23:36;1999.90;;;999.90;;
36653;SDS011;22650;49.350;20.898;2023-07-09T03:26:11;1999.90;;;999.90;;
36653;SDS011;22650;49.350;20.898;2023-07-09T03:28:45;1999.90;;;999.90;;
36653;SDS011;22650;49.350;20.898;2023-07-09T03:31:18;1999.90;;;999.90;;
36653;SDS011;22650;49.350;20.898;2023-07-09T03:33:52;1999.90;;;999.90;;
36653;SDS011;22650;49.350;20.898;2023-07-09T03:36:26;1999.90;;;999.90;;
36653;SDS011;22650;49.350;20.898;2023-07-09T03:39:00;1999.90;;;999.90;;
36653;SDS011;22650;49.350;20.898;2023-07-09T03:41:35;1999.90;;;999.90;;
36653;SDS011;22650;49.350;20.898;2023-07-09T03:44:09;1999.90;;;999.90;;
36653;SDS011;22650;49.350;20.898;2023-07-09T03:46:43;1999.90;;;999.90;;
36653;SDS011;22650;49.350;20.898;2023-07-09T03:49:16;1999.90;;;999.90;;
36653;SDS011;22650;49.350;20.898;2023-07-09T03:51:51;1999.90;;;999.90;;
36653;SDS011;22650;49.350;20.898;2023-07-09T03:54:24;1999.90;;;999.90;;
36653;SDS011;22650;49.350;20.898;2023-07-09T03:57:00;1999.90;;;999.90;;
36653;SDS011;22650;49.350;20.898;2023-07-09T03:59:33;1999.90;;;999.90;;
36653;SDS011;22650;49.350;20.898;2023-07-09T04:02:08;1999.90;;;999.90;;
36653;SDS011;22650;49.350;20.898;2023-07-09T04:04:42;1999.90;;;999.90;;
36653;SDS011;22650;49.350;20.898;2023-07-09T04:07:16;1999.90;;;999.90;;
36653;SDS011;22650;49.350;20.898;2023-07-09T04:09:51;1999.90;;;999.90;;
36653;SDS011;22650;49.350;20.898;2023-07-09T04:12:27;1999.90;;;999.90;;
36653;SDS011;22650;49.350;20.898;2023-07-09T04:15:00;1999.90;;;999.90;;
36653;SDS011;22650;49.350;20.898;2023-07-09T04:17:34;1999.90;;;999.90;;
36653;SDS011;22650;49.350;20.898;2023-07-09T04:20:08;1999.90;;;999.90;;
36653;SDS011;22650;49.350;20.898;2023-07-09T04:22:43;1999.90;;;999.90;;
36653;SDS011;22650;49.350;20.898;2023-07-09T04:25:16;1999.90;;;999.90;;
36653;SDS011;22650;49.350;20.898;2023-07-09T04:27:52;1999.90;;;999.90;;
36653;SDS011;22650;49.350;20.898;2023-07-09T04:30:25;1999.90;;;999.90;;
36653;SDS011;22650;49.350;20.898;2023-07-09T04:32:59;1999.90;;;999.90;;
36653;SDS011;22650;49.350;20.898;2023-07-09T04:35:33;1999.90;;;999.90;;
36653;SDS011;22650;49.350;20.898;2023-07-09T04:38:06;1999.90;;;999.90;;
36653;SDS011;22650;49.350;20.898;2023-07-09T04:40:40;1999.90;;;999.90;;
36653;SDS011;22650;49.350;20.898;2023-07-09T04:43:15;1999.90;;;999.90;;
36653;SDS011;22650;49.350;20.898;2023-07-09T04:45:49;1999.90;;;999.90;;
36653;SDS011;22650;49.350;20.898;2023-07-09T04:48:22;1999.90;;;999.90;;
36653;SDS011;22650;49.350;20.898;2023-07-09T04:50:56;1999.90;;;999.90;;
36653;SDS011;22650;49.350;20.898;2023-07-09T04:53:31;1999.90;;;999.90;;
36653;SDS011;22650;49.350;20.898;2023-07-09T04:56:05;1999.90;;;999.90;;
36653;SDS011;22650;49.350;20.898;2023-07-09T04:58:40;1999.90;;;999.90;;
36653;SDS011;22650;49.350;20.898;2023-07-09T05:01:14;1999.90;;;999.90;;
36653;SDS011;22650;49.350;20.898;2023-07-09T05:03:48;1999.90;;;999.90;;
36653;SDS011;22650;49.350;20.898;2023-07-09T05:06:21;1999.90;;;999.90;;
36653;SDS011;22650;49.350;20.898;2023-07-09T05:08:55;1999.90;;;999.90;;
36653;SDS011;22650;49.350;20.898;2023-07-09T05:11:29;1999.90;;;999.90;;
36653;SDS011;22650;49.350;20.898;2023-07-09T05:14:05;1999.90;;;999.90;;
36653;SDS011;22650;49.350;20.898;2023-07-09T05:16:39;1999.90;;;999.90;;
36653;SDS011;22650;49.350;20.898;2023-07-09T05:19:12;1999.90;;;999.90;;
36653;SDS011;22650;49.350;20.898;2023-07-09T05:21:46;1999.90;;;999.90;;
36653;SDS011;22650;49.350;20.898;2023-07-09T05:24:20;1999.90;;;999.90;;
36653;SDS011;22650;49.350;20.898;2023-07-09T05:26:55;1999.90;;;999.90;;
36653;SDS011;22650;49.350;20.898;2023-07-09T05:29:30;1999.90;;;999.90;;
36653;SDS011;22650;49.350;20.898;2023-07-09T05:32:04;1999.90;;;999.90;;
36653;SDS011;22650;49.350;20.898;2023-07-09T05:34:38;1999.90;;;999.90;;
36653;SDS011;22650;49.350;20.898;2023-07-09T05:37:12;1999.90;;;999.90;;
36653;SDS011;22650;49.350;20.898;2023-07-09T05:39:45;1999.90;;;999.90;;
36653;SDS011;22650;49.350;20.898;2023-07-09T05:42:19;1999.90;;;999.90;;
36653;SDS011;22650;49.350;20.898;2023-07-09T05:44:54;1999.90;;;999.90;;
36653;SDS011;22650;49.350;20.898;2023-07-09T05:47:28;1999.90;;;999.90;;
36653;SDS011;22650;49.350;20.898;2023-07-09T05:50:01;1999.90;;;999.90;;
36653;SDS011;22650;49.350;20.898;2023-07-09T05:52:35;1999.90;;;999.90;;
36653;SDS011;22650;49.350;20.898;2023-07-09T05:55:09;1999.90;;;999.90;;
36653;SDS011;22650;49.350;20.898;2023-07-09T05:57:43;1999.90;;;999.90;;
36653;SDS011;22650;49.350;20.898;2023-07-09T06:00:18;1999.90;;;999.90;;
36653;SDS011;22650;49.350;20.898;2023-07-09T06:02:52;1999.90;;;999.90;;
36653;SDS011;22650;49.350;20.898;2023-07-09T06:05:26;1999.90;;;999.90;;
36653;SDS011;22650;49.350;20.898;2023-07-09T06:08:03;1999.90;;;999.90;;
36653;SDS011;22650;49.350;20.898;2023-07-09T06:10:37;1999.90;;;999.90;;
36653;SDS011;22650;49.350;20.898;2023-07-09T06:13:12;1999.90;;;999.90;;
36653;SDS011;22650;49.350;20.898;2023-07-09T06:15:47;1999.90;;;999.90;;
36653;SDS011;22650;49.350;20.898;2023-07-09T06:18:21;1999.90;;;999.90;;
36653;SDS011;22650;49.350;20.898;2023-07-09T06:20:58;1999.90;;;999.90;;
36653;SDS011;22650;49.350;20.898;2023-07-09T06:23:32;1999.90;;;999.90;;
36653;SDS011;22650;49.350;20.898;2023-07-09T06:26:06;1999.90;;;999.90;;
36653;SDS011;22650;49.350;20.898;2023-07-09T06:28:40;1999.90;;;999.90;;
36653;SDS011;22650;49.350;20.898;2023-07-09T06:31:15;1999.90;;;999.90;;
36653;SDS011;22650;49.350;20.898;2023-07-09T06:33:50;1999.90;;;999.90;;
36653;SDS011;22650;49.350;20.898;2023-07-09T06:36:23;1999.90;;;999.90;;
36653;SDS011;22650;49.350;20.898;2023-07-09T06:38:57;1999.90;;;999.90;;
36653;SDS011;22650;49.350;20.898;2023-07-09T06:41:31;1999.90;;;999.90;;
36653;SDS011;22650;49.350;20.898;2023-07-09T06:44:12;1999.90;;;999.90;;
36653;SDS011;22650;49.350;20.898;2023-07-09T06:46:47;1999.90;;;999.90;;
36653;SDS011;22650;49.350;20.898;2023-07-09T06:49:21;1999.90;;;999.90;;
36653;SDS011;22650;49.350;20.898;2023-07-09T06:51:55;1999.90;;;888.28;;
36653;SDS011;22650;49.350;20.898;2023-07-09T06:54:28;1999.90;;;749.22;;
36653;SDS011;22650;49.350;20.898;2023-07-09T06:57:02;1999.90;;;999.90;;
36653;SDS011;22650;49.350;20.898;2023-07-09T06:59:36;1999.90;;;931.10;;
36653;SDS011;22650;49.350;20.898;2023-07-09T07:02:12;1999.90;;;821.00;;
36653;SDS011;22650;49.350;20.898;2023-07-09T07:04:45;1999.90;;;999.90;;
36653;SDS011;22650;49.350;20.898;2023-07-09T07:07:19;1999.90;;;918.90;;
36653;SDS011;22650;49.350;20.898;2023-07-09T07:09:53;1999.90;;;999.90;;
36653;SDS011;22650;49.350;20.898;2023-07-09T07:12:27;1999.90;;;999.90;;
36653;SDS011;22650;49.350;20.898;2023-07-09T07:15:01;1999.90;;;999.90;;
36653;SDS011;22650;49.350;20.898;2023-07-09T07:17:37;1999.90;;;999.90;;
36653;SDS011;22650;49.350;20.898;2023-07-09T07:20:11;1573.63;;;999.90;;
36653;SDS011;22650;49.350;20.898;2023-07-09T07:22:45;1999.90;;;999.90;;
36653;SDS011;22650;49.350;20.898;2023-07-09T07:25:19;1999.90;;;999.90;;
36653;SDS011;22650;49.350;20.898;2023-07-09T07:27:53;1254.10;;;959.90;;
36653;SDS011;22650;49.350;20.898;2023-07-09T07:30:26;1647.13;;;999.90;;
36653;SDS011;22650;49.350;20.898;2023-07-09T07:33:02;1370.93;;;967.75;;
36653;SDS011;22650;49.350;20.898;2023-07-09T07:35:36;902.90;;;818.42;;
36653;SDS011;22650;49.350;20.898;2023-07-09T07:38:30;847.40;;;771.80;;
36653;SDS011;22650;49.350;20.898;2023-07-09T07:41:03;955.30;;;854.22;;
36653;SDS011;22650;49.350;20.898;2023-07-09T07:43:37;638.38;;;586.50;;
36653;SDS011;22650;49.350;20.898;2023-07-09T07:46:11;588.97;;;543.25;;
36653;SDS011;22650;49.350;20.898;2023-07-09T07:48:46;337.38;;;312.88;;
36653;SDS011;22650;49.350;20.898;2023-07-09T07:51:20;888.53;;;805.03;;
36653;SDS011;22650;49.350;20.898;2023-07-09T07:53:54;401.50;;;372.17;;
36653;SDS011;22650;49.350;20.898;2023-07-09T07:56:28;729.60;;;667.15;;
36653;SDS011;22650;49.350;20.898;2023-07-09T07:59:02;280.27;;;258.63;;
36653;SDS011;22650;49.350;20.898;2023-07-09T08:01:36;266.30;;;245.07;;
36653;SDS011;22650;49.350;20.898;2023-07-09T08:04:11;705.75;;;649.47;;
36653;SDS011;22650;49.350;20.898;2023-07-09T08:06:45;279.52;;;255.52;;
36653;SDS011;22650;49.350;20.898;2023-07-09T08:09:18;579.15;;;535.63;;
36653;SDS011;22650;49.350;20.898;2023-07-09T08:11:52;718.08;;;649.33;;
36653;SDS011;22650;49.350;20.898;2023-07-09T08:14:26;350.98;;;317.67;;
36653;SDS011;22650;49.350;20.898;2023-07-09T08:17:00;659.00;;;594.65;;
36653;SDS011;22650;49.350;20.898;2023-07-09T08:19:44;508.17;;;459.80;;
36653;SDS011;22650;49.350;20.898;2023-07-09T08:22:19;1057.10;;;939.80;;
36653;SDS011;22650;49.350;20.898;2023-07-09T08:24:53;1092.13;;;954.13;;
36653;SDS011;22650;49.350;20.898;2023-07-09T08:27:27;1410.75;;;999.90;;
36653;SDS011;22650;49.350;20.898;2023-07-09T08:30:01;1663.00;;;999.90;;
36653;SDS011;22650;49.350;20.898;2023-07-09T08:32:36;1765.25;;;999.90;;
36653;SDS011;22650;49.350;20.898;2023-07-09T08:35:11;1777.05;;;999.90;;
36653;SDS011;22650;49.350;20.898;2023-07-09T08:38:06;1999.90;;;999.90;;
36653;SDS011;22650;49.350;20.898;2023-07-09T08:40:40;1999.90;;;999.90;;
36653;SDS011;22650;49.350;20.898;2023-07-09T08:43:17;1999.90;;;999.90;;
36653;SDS011;22650;49.350;20.898;2023-07-09T08:46:03;1999.90;;;999.90;;
36653;SDS011;22650;49.350;20.898;2023-07-09T08:48:44;1999.90;;;999.90;;
36653;SDS011;22650;49.350;20.898;2023-07-09T08:51:24;1999.90;;;999.90;;
36653;SDS011;22650;49.350;20.898;2023-07-09T08:54:04;1999.90;;;999.90;;
36653;SDS011;22650;49.350;20.898;2023-07-09T08:56:46;1939.47;;;999.90;;
36653;SDS011;22650;49.350;20.898;2023-07-09T08:59:22;1887.68;;;999.90;;
36653;SDS011;22650;49.350;20.898;2023-07-09T09:01:57;1619.00;;;999.90;;
36653;SDS011;22650;49.350;20.898;2023-07-09T09:04:35;1155.22;;;913.83;;
36653;SDS011;22650;49.350;20.898;2023-07-09T09:07:14;1888.28;;;999.90;;
36653;SDS011;22650;49.350;20.898;2023-07-09T09:09:56;1368.55;;;967.05;;
36653;SDS011;22650;49.350;20.898;2023-07-09T09:12:35;1303.30;;;937.30;;
36653;SDS011;22650;49.350;20.898;2023-07-09T09:15:12;881.60;;;794.63;;
36653;SDS011;22650;49.350;20.898;2023-07-09T09:17:50;1903.15;;;999.90;;
36653;SDS011;22650;49.350;20.898;2023-07-09T09:20:45;1491.80;;;999.75;;
36653;SDS011;22650;49.350;20.898;2023-07-09T09:23:25;1300.63;;;976.13;;
36653;SDS011;22650;49.350;20.898;2023-07-09T09:26:09;1170.38;;;926.30;;
36653;SDS011;22650;49.350;20.898;2023-07-09T09:28:50;879.38;;;794.45;;
36653;SDS011;22650;49.350;20.898;2023-07-09T09:31:25;889.88;;;804.47;;
36653;SDS011;22650;49.350;20.898;2023-07-09T09:34:03;832.33;;;754.33;;
36653;SDS011;22650;49.350;20.898;2023-07-09T09:36:40;932.95;;;834.50;;
36653;SDS011;22650;49.350;20.898;2023-07-09T09:39:16;969.20;;;867.35;;
36653;SDS011;22650;49.350;20.898;2023-07-09T09:41:51;968.65;;;868.00;;
36653;SDS011;22650;49.350;20.898;2023-07-09T09:44:27;979.30;;;876.92;;
36653;SDS011;22650;49.350;20.898;2023-07-09T09:47:04;940.67;;;842.72;;
36653;SDS011;22650;49.350;20.898;2023-07-09T09:49:38;1012.13;;;900.35;;
36653;SDS011;22650;49.350;20.898;2023-07-09T09:52:13;939.42;;;840.97;;
36653;SDS011;22650;49.350;20.898;2023-07-09T09:54:51;1190.78;;;952.53;;
36653;SDS011;22650;49.350;20.898;2023-07-09T09:57:28;1038.38;;;932.20;;
36653;SDS011;22650;49.350;20.898;2023-07-09T10:00:02;1058.07;;;951.17;;
36653;SDS011;22650;49.350;20.898;2023-07-09T10:02:39;962.17;;;865.53;;
36653;SDS011;22650;49.350;20.898;2023-07-09T10:05:14;973.72;;;880.67;;
36653;SDS011;22650;49.350;20.898;2023-07-09T10:07:53;1000.42;;;896.40;;
36653;SDS011;22650;49.350;20.898;2023-07-09T10:10:38;999.22;;;896.65;;
36653;SDS011;22650;49.350;20.898;2023-07-09T10:13:18;1079.35;;;962.72;;
36653;SDS011;22650;49.350;20.898;2023-07-09T10:15:59;989.22;;;891.25;;
36653;SDS011;22650;49.350;20.898;2023-07-09T10:18:44;1010.88;;;906.60;;
36653;SDS011;22650;49.350;20.898;2023-07-09T10:21:27;933.92;;;843.10;;
36653;SDS011;22650;49.350;20.898;2023-07-09T10:24:12;1051.57;;;940.50;;
36653;SDS011;22650;49.350;20.898;2023-07-09T10:27:03;1134.18;;;999.15;;
36653;SDS011;22650;49.350;20.898;2023-07-09T10:29:48;1158.30;;;999.90;;
36653;SDS011;22650;49.350;20.898;2023-07-09T10:32:45;1141.25;;;999.90;;
36653;SDS011;22650;49.350;20.898;2023-07-09T10:35:31;1139.57;;;999.90;;
36653;SDS011;22650;49.350;20.898;2023-07-09T10:38:19;989.53;;;891.40;;
36653;SDS011;22650;49.350;20.898;2023-07-09T10:41:04;1007.80;;;908.42;;
36653;SDS011;22650;49.350;20.898;2023-07-09T10:44:01;1140.28;;;999.90;;
36653;SDS011;22650;49.350;20.898;2023-07-09T10:46:45;1133.13;;;999.90;;
36653;SDS011;22650;49.350;20.898;2023-07-09T10:49:22;1144.03;;;999.90;;
36653;SDS011;22650;49.350;20.898;2023-07-09T10:52:05;1010.17;;;907.25;;
36653;SDS011;22650;49.350;20.898;2023-07-09T10:54:47;1133.70;;;999.90;;
36653;SDS011;22650;49.350;20.898;2023-07-09T10:57:28;1220.95;;;999.90;;
36653;SDS011;22650;49.350;20.898;2023-07-09T11:00:15;1047.55;;;939.13;;
36653;SDS011;22650;49.350;20.898;2023-07-09T11:02:54;1226.10;;;999.90;;
36653;SDS011;22650;49.350;20.898;2023-07-09T11:05:32;1051.32;;;941.83;;
36653;SDS011;22650;49.350;20.898;2023-07-09T11:08:08;1078.13;;;967.17;;
36653;SDS011;22650;49.350;20.898;2023-07-09T11:10:46;1116.10;;;996.03;;
36653;SDS011;22650;49.350;20.898;2023-07-09T11:13:25;1089.45;;;972.13;;
36653;SDS011;22650;49.350;20.898;2023-07-09T11:16:24;1106.25;;;986.80;;
36653;SDS011;22650;49.350;20.898;2023-07-09T11:19:02;1026.50;;;922.78;;
36653;SDS011;22650;49.350;20.898;2023-07-09T11:21:40;1121.82;;;998.30;;
36653;SDS011;22650;49.350;20.898;2023-07-09T11:24:26;970.88;;;874.95;;
36653;SDS011;22650;49.350;20.898;2023-07-09T11:27:15;1054.18;;;946.53;;
36653;SDS011;22650;49.350;20.898;2023-07-09T11:29:58;978.38;;;887.05;;
36653;SDS011;22650;49.350;20.898;2023-07-09T11:32:44;1068.85;;;957.90;;
36653;SDS011;22650;49.350;20.898;2023-07-09T11:35:20;1143.03;;;999.90;;
36653;SDS011;22650;49.350;20.898;2023-07-09T11:37:56;1080.95;;;966.55;;
36653;SDS011;22650;49.350;20.898;2023-07-09T11:40:45;976.95;;;884.40;;
36653;SDS011;22650;49.350;20.898;2023-07-09T11:43:27;1104.75;;;984.00;;
36653;SDS011;22650;49.350;20.898;2023-07-09T11:46:06;1090.05;;;973.28;;
36653;SDS011;22650;49.350;20.898;2023-07-09T11:48:47;1154.82;;;974.05;;
36653;SDS011;22650;49.350;20.898;2023-07-09T11:51:26;1137.25;;;995.70;;
36653;SDS011;22650;49.350;20.898;2023-07-09T11:54:07;1118.80;;;994.50;;
36653;SDS011;22650;49.350;20.898;2023-07-09T11:56:52;1114.00;;;994.20;;
36653;SDS011;22650;49.350;20.898;2023-07-09T12:04:51;1151.40;;;999.90;;
36653;SDS011;22650;49.350;20.898;2023-07-09T12:07:28;1103.78;;;986.60;;
36653;SDS011;22650;49.350;20.898;2023-07-09T12:10:25;1019.60;;;918.30;;
36653;SDS011;22650;49.350;20.898;2023-07-09T12:13:19;977.33;;;888.20;;
36653;SDS011;22650;49.350;20.898;2023-07-09T12:15:58;1248.43;;;998.05;;
36653;SDS011;22650;49.350;20.898;2023-07-09T12:22:27;993.67;;;901.88;;
36653;SDS011;22650;49.350;20.898;2023-07-09T12:25:46;1033.40;;;928.75;;
36653;SDS011;22650;49.350;20.898;2023-07-09T12:28:35;1251.05;;;999.90;;
36653;SDS011;22650;49.350;20.898;2023-07-09T12:31:33;1023.30;;;920.25;;
36653;SDS011;22650;49.350;20.898;2023-07-09T12:39:33;966.33;;;879.08;;
36653;SDS011;22650;49.350;20.898;2023-07-09T12:45:46;970.60;;;881.58;;
36653;SDS011;22650;49.350;20.898;2023-07-09T12:48:20;986.60;;;892.05;;
36653;SDS011;22650;49.350;20.898;2023-07-09T12:50:58;997.65;;;900.17;;
36653;SDS011;22650;49.350;20.898;2023-07-09T12:53:33;1012.92;;;915.55;;
36653;SDS011;22650;49.350;20.898;2023-07-09T12:56:11;960.63;;;873.85;;
36653;SDS011;22650;49.350;20.898;2023-07-09T12:58:48;1001.47;;;903.13;;
36653;SDS011;22650;49.350;20.898;2023-07-09T13:01:22;999.90;;;901.60;;
36653;SDS011;22650;49.350;20.898;2023-07-09T13:03:57;1030.38;;;923.80;;
36653;SDS011;22650;49.350;20.898;2023-07-09T13:06:35;1023.53;;;921.63;;
36653;SDS011;22650;49.350;20.898;2023-07-09T13:09:11;1065.47;;;947.80;;
36653;SDS011;22650;49.350;20.898;2023-07-09T13:11:53;965.38;;;874.88;;
36653;SDS011;22650;49.350;20.898;2023-07-09T13:14:29;1021.17;;;918.50;;
36653;SDS011;22650;49.350;20.898;2023-07-09T13:17:04;982.30;;;890.33;;
36653;SDS011;22650;49.350;20.898;2023-07-09T13:19:40;978.28;;;888.20;;
36653;SDS011;22650;49.350;20.898;2023-07-09T13:22:15;984.92;;;890.45;;
36653;SDS011;22650;49.350;20.898;2023-07-09T13:24:51;972.28;;;880.08;;
36653;SDS011;22650;49.350;20.898;2023-07-09T13:27:26;1165.35;;;975.60;;
36653;SDS011;22650;49.350;20.898;2023-07-09T13:30:00;990.20;;;897.38;;
36653;SDS011;22650;49.350;20.898;2023-07-09T13:32:34;977.58;;;886.95;;
36653;SDS011;22650;49.350;20.898;2023-07-09T13:35:12;1276.95;;;997.15;;
36653;SDS011;22650;49.350;20.898;2023-07-09T13:37:47;1615.75;;;999.90;;
36653;SDS011;22650;49.350;20.898;2023-07-09T13:40:21;1511.18;;;999.90;;
36653;SDS011;22650;49.350;20.898;2023-07-09T13:42:57;962.28;;;875.60;;
36653;SDS011;22650;49.350;20.898;2023-07-09T13:45:30;990.92;;;892.70;;
36653;SDS011;22650;49.350;20.898;2023-07-09T13:48:07;1015.40;;;913.40;;
36653;SDS011;22650;49.350;20.898;2023-07-09T13:50:50;1100.05;;;958.97;;
36653;SDS011;22650;49.350;20.898;2023-07-09T13:53:27;1456.63;;;999.90;;
36653;SDS011;22650;49.350;20.898;2023-07-09T13:56:04;967.83;;;876.45;;
36653;SDS011;22650;49.350;20.898;2023-07-09T13:58:39;991.10;;;896.55;;
36653;SDS011;22650;49.350;20.898;2023-07-09T14:01:13;1019.58;;;916.40;;
36653;SDS011;22650;49.350;20.898;2023-07-09T14:03:48;979.10;;;887.35;;
36653;SDS011;22650;49.350;20.898;2023-07-09T14:06:23;994.22;;;896.58;;
36653;SDS011;22650;49.350;20.898;2023-07-09T14:08:57;924.25;;;841.33;;
36653;SDS011;22650;49.350;20.898;2023-07-09T14:11:30;996.08;;;899.17;;
36653;SDS011;22650;49.350;20.898;2023-07-09T14:14:08;964.35;;;875.53;;
36653;SDS011;22650;49.350;20.898;2023-07-09T14:16:50;951.92;;;863.65;;
36653;SDS011;22650;49.350;20.898;2023-07-09T14:19:24;967.47;;;879.58;;
36653;SDS011;22650;49.350;20.898;2023-07-09T14:21:59;1062.82;;;947.53;;
36653;SDS011;22650;49.350;20.898;2023-07-09T14:24:33;945.28;;;857.10;;
36653;SDS011;22650;49.350;20.898;2023-07-09T14:27:07;1107.05;;;956.60;;
36653;SDS011;22650;49.350;20.898;2023-07-09T14:29:44;963.95;;;876.85;;
36653;SDS011;22650;49.350;20.898;2023-07-09T14:32:26;967.53;;;878.22;;
36653;SDS011;22650;49.350;20.898;2023-07-09T14:35:10;1052.63;;;945.80;;
36653;SDS011;22650;49.350;20.898;2023-07-09T14:37:46;1046.50;;;937.65;;
36653;SDS011;22650;49.350;20.898;2023-07-09T14:40:21;1005.28;;;909.40;;
36653;SDS011;22650;49.350;20.898;2023-07-09T14:42:55;1006.42;;;901.45;;
36653;SDS011;22650;49.350;20.898;2023-07-09T14:45:32;968.92;;;877.08;;
36653;SDS011;22650;49.350;20.898;2023-07-09T14:48:10;948.78;;;863.70;;
36653;SDS011;22650;49.350;20.898;2023-07-09T14:50:45;1268.32;;;999.90;;
36653;SDS011;22650;49.350;20.898;2023-07-09T14:53:21;1283.40;;;999.90;;
36653;SDS011;22650;49.350;20.898;2023-07-09T14:55:58;1239.53;;;999.90;;
36653;SDS011;22650;49.350;20.898;2023-07-09T14:58:31;1042.28;;;933.75;;